Time;durP1;ratioP1;P1;durP2;ratioP2;P2;SDS_P1;SDS_P2;PMS_P1;PMS_P2;Temp;Humidity;BMP_temperature;BMP_pressure;BME280_temperature;BME280_humidity;BME280_pressure;Samples;Min_cycle;Max_cycle;Signal;HPM_P1;HPM_P2
2021/06/30 00:01:57;;;;;;;;;;;26.50;99.90;;;;;;5084184;28;19928;-72
2021/06/30 00:04:22;;;;;;;;;;;26.50;99.90;;;;;;5089041;28;20011;-72
2021/06/30 00:06:48;;;;;;;;;;;26.60;99.90;;;;;;5089010;28;20042;-72
2021/06/30 00:09:14;;;;;;;;;;;26.60;99.90;;;;;;5077345;28;19961;-72
2021/06/30 00:11:40;;;;;;;;;;;26.60;99.90;;;;;;5083929;28;20384;-71
2021/06/30 00:14:06;;;;;;;;;;;26.60;99.90;;;;;;5090643;28;20006;-71
2021/06/30 00:16:32;;;;;;;;;;;26.50;99.90;;;;;;5088923;28;20239;-71
2021/06/30 00:18:59;;;;;;;;;;;26.50;99.90;;;;;;5080961;28;19916;-71
2021/06/30 00:21:25;;;;;;;;;;;26.50;99.90;;;;;;5089014;28;19916;-71
2021/06/30 00:23:50;;;;;;;;;;;26.40;99.90;;;;;;5086201;28;20336;-71
2021/06/30 00:26:16;;;;;;;;;;;26.40;99.90;;;;;;5087994;28;19958;-70
2021/06/30 00:28:41;;;;;;;;;;;26.40;99.90;;;;;;5087781;28;19970;-70
2021/06/30 00:31:07;;;;;;;;;;;26.30;99.90;;;;;;5087524;28;19912;-71
2021/06/30 00:33:33;;;;;;;;;;;26.30;99.90;;;;;;5081068;28;20026;-70
2021/06/30 00:35:58;;;;;;;;;;;26.30;99.90;;;;;;5085572;28;19913;-70
2021/06/30 00:38:24;;;;;;;;;;;26.30;99.90;;;;;;5084986;28;19916;-73
2021/06/30 00:40:49;;;;;;;;;;;26.20;99.90;;;;;;5083705;28;20313;-70
2021/06/30 00:43:17;;;;;;;;;;;26.20;99.90;;;;;;5088168;28;19919;-71
2021/06/30 00:45:42;;;;;;;;;;;26.20;99.90;;;;;;5087649;28;20362;-71
2021/06/30 00:48:09;;;;;;;;;;;26.20;99.90;;;;;;5085208;28;19919;-71
2021/06/30 00:50:34;;;;;;;;;;;26.30;99.90;;;;;;5082466;28;19919;-71
2021/06/30 00:53:00;;;;;;;;;;;26.30;99.90;;;;;;5087107;28;19912;-71
2021/06/30 00:55:25;;;;;;;;;;;26.20;99.90;;;;;;5084452;28;19921;-71
2021/06/30 00:57:51;;;;;;;;;;;26.20;99.90;;;;;;5089495;28;20526;-71
2021/06/30 01:00:17;;;;;;;;;;;26.10;99.90;;;;;;5080082;28;19912;-71
2021/06/30 01:02:43;;;;;;;;;;;26.10;99.90;;;;;;5084076;28;19912;-70
2021/06/30 01:05:09;;;;;;;;;;;26.10;99.90;;;;;;5085537;28;19961;-71
2021/06/30 01:07:35;;;;;;;;;;;26.10;99.90;;;;;;5087118;28;19912;-70
2021/06/30 01:10:00;;;;;;;;;;;26.10;99.90;;;;;;5085592;28;20010;-70
2021/06/30 01:12:26;;;;;;;;;;;25.90;99.90;;;;;;5088464;28;19919;-72
2021/06/30 01:14:52;;;;;;;;;;;25.90;99.90;;;;;;5081906;28;20012;-72
2021/06/30 01:17:17;;;;;;;;;;;26.00;99.90;;;;;;5089085;28;20428;-72
2021/06/30 01:19:43;;;;;;;;;;;26.00;99.90;;;;;;5088313;28;19919;-71
2021/06/30 01:22:08;;;;;;;;;;;25.90;99.90;;;;;;5089628;28;19912;-71
2021/06/30 01:24:35;;;;;;;;;;;25.90;99.90;;;;;;5089860;28;19951;-72
2021/06/30 01:27:00;;;;;;;;;;;25.80;99.90;;;;;;5084633;28;19912;-72
2021/06/30 01:29:26;;;;;;;;;;;25.80;99.90;;;;;;5079574;28;19916;-72
2021/06/30 01:31:52;;;;;;;;;;;25.80;99.90;;;;;;5083456;28;20034;-72
2021/06/30 01:34:18;;;;;;;;;;;25.80;99.90;;;;;;5085915;28;19912;-72
2021/06/30 01:36:44;;;;;;;;;;;25.80;99.90;;;;;;5089833;28;19912;-72
2021/06/30 01:39:10;;;;;;;;;;;25.70;99.90;;;;;;5084789;28;19924;-71
2021/06/30 01:41:35;;;;;;;;;;;25.70;99.90;;;;;;5077009;28;20370;-72
2021/06/30 01:44:01;;;;;;;;;;;25.70;99.90;;;;;;5079859;28;19913;-72
2021/06/30 01:46:29;;;;;;;;;;;25.70;99.90;;;;;;5088739;28;19964;-72
2021/06/30 01:48:54;;;;;;;;;;;25.70;99.90;;;;;;5081618;28;20370;-72
2021/06/30 01:51:20;;;;;;;;;;;25.60;99.90;;;;;;5087101;28;19919;-72
2021/06/30 01:53:46;;;;;;;;;;;25.60;99.90;;;;;;5088508;28;19919;-72
2021/06/30 01:56:12;;;;;;;;;;;25.50;99.90;;;;;;5082015;28;19916;-72
2021/06/30 01:58:37;;;;;;;;;;;25.40;99.90;;;;;;5081362;28;19962;-72
2021/06/30 02:01:03;;;;;;;;;;;25.50;99.90;;;;;;5085966;28;20405;-72
2021/06/30 02:03:29;;;;;;;;;;;25.40;99.90;;;;;;5091044;28;20542;-72
2021/06/30 02:05:54;;;;;;;;;;;25.40;99.90;;;;;;5093252;28;19923;-72
2021/06/30 02:08:20;;;;;;;;;;;25.40;99.90;;;;;;5089563;28;19921;-72
2021/06/30 02:10:45;;;;;;;;;;;25.40;99.90;;;;;;5082634;28;19912;-71
2021/06/30 02:13:11;;;;;;;;;;;25.30;99.90;;;;;;5091023;28;19955;-72
2021/06/30 02:15:38;;;;;;;;;;;25.40;99.90;;;;;;5090879;28;19961;-72
2021/06/30 02:18:04;;;;;;;;;;;25.30;99.90;;;;;;5087668;28;19939;-72
2021/06/30 02:20:30;;;;;;;;;;;25.30;99.90;;;;;;5087586;28;20293;-71
2021/06/30 02:22:56;;;;;;;;;;;25.20;99.90;;;;;;5093767;28;19908;-72
2021/06/30 02:25:23;;;;;;;;;;;25.30;99.90;;;;;;5089074;28;19943;-71
2021/06/30 02:27:49;;;;;;;;;;;25.30;99.90;;;;;;5087361;28;19916;-72
2021/06/30 02:30:16;;;;;;;;;;;25.40;99.90;;;;;;5085770;28;19919;-71
2021/06/30 02:32:42;;;;;;;;;;;25.50;99.90;;;;;;5091466;28;20479;-69
2021/06/30 02:35:09;;;;;;;;;;;25.40;99.90;;;;;;5086509;28;19912;-72
2021/06/30 02:37:36;;;;;;;;;;;25.40;99.90;;;;;;5087071;28;20007;-72
2021/06/30 02:40:02;;;;;;;;;;;25.40;99.90;;;;;;5078148;28;19913;-72
2021/06/30 02:42:28;;;;;;;;;;;25.40;99.90;;;;;;5088197;28;19912;-72
2021/06/30 02:44:53;;;;;;;;;;;25.40;99.90;;;;;;5091810;28;19912;-72
2021/06/30 02:47:20;;;;;;;;;;;25.30;99.90;;;;;;5090547;28;19916;-73
2021/06/30 02:49:45;;;;;;;;;;;25.40;99.90;;;;;;5081169;28;19920;-71
2021/06/30 02:52:11;;;;;;;;;;;25.40;99.90;;;;;;5091567;28;19912;-71
2021/06/30 02:54:37;;;;;;;;;;;25.40;99.90;;;;;;5083645;28;19970;-71
2021/06/30 02:57:03;;;;;;;;;;;25.40;99.90;;;;;;5085118;28;19912;-72
2021/06/30 02:59:28;;;;;;;;;;;25.40;99.90;;;;;;5081529;28;19919;-71
2021/06/30 03:01:54;;;;;;;;;;;25.40;99.90;;;;;;5088457;28;19912;-71
2021/06/30 03:04:19;;;;;;;;;;;25.40;99.90;;;;;;5089242;28;19923;-72
2021/06/30 03:06:45;;;;;;;;;;;25.40;99.90;;;;;;5090370;28;19955;-72
2021/06/30 03:09:11;;;;;;;;;;;25.30;99.90;;;;;;5091401;28;19966;-71
2021/06/30 03:11:38;;;;;;;;;;;25.30;99.90;;;;;;5088225;28;19916;-71
2021/06/30 03:14:04;;;;;;;;;;;25.40;99.90;;;;;;5089144;28;19918;-71
2021/06/30 03:16:29;;;;;;;;;;;25.30;99.90;;;;;;5085926;28;19912;-72
2021/06/30 03:18:55;;;;;;;;;;;25.30;99.90;;;;;;5086212;28;19916;-70
2021/06/30 03:21:21;;;;;;;;;;;25.20;99.90;;;;;;5090611;28;20385;-70
2021/06/30 03:23:46;;;;;;;;;;;25.20;99.90;;;;;;5090340;28;19934;-71
2021/06/30 03:26:12;;;;;;;;;;;25.20;99.90;;;;;;5084053;28;19916;-71
2021/06/30 03:28:37;;;;;;;;;;;25.20;99.90;;;;;;5090995;28;19956;-71
2021/06/30 03:31:03;;;;;;;;;;;25.10;99.90;;;;;;5089565;28;19920;-71
2021/06/30 03:33:29;;;;;;;;;;;25.10;99.90;;;;;;5088956;28;19916;-71
2021/06/30 03:35:54;;;;;;;;;;;25.10;99.90;;;;;;5087922;28;19973;-71
2021/06/30 03:38:20;;;;;;;;;;;25.20;99.90;;;;;;5086808;28;19912;-70
2021/06/30 03:40:46;;;;;;;;;;;25.20;99.90;;;;;;5082043;28;19923;-71
2021/06/30 03:43:11;;;;;;;;;;;25.20;99.90;;;;;;5086904;28;19912;-70
2021/06/30 03:45:37;;;;;;;;;;;25.20;99.90;;;;;;5089411;28;20365;-72
2021/06/30 03:48:03;;;;;;;;;;;25.10;99.90;;;;;;5085937;28;19921;-71
2021/06/30 03:50:28;;;;;;;;;;;25.10;99.90;;;;;;5085305;28;19909;-71
2021/06/30 03:52:54;;;;;;;;;;;25.10;99.90;;;;;;5089676;28;19995;-71
2021/06/30 03:55:19;;;;;;;;;;;25.10;99.90;;;;;;5081956;28;19915;-71
2021/06/30 03:57:45;;;;;;;;;;;25.00;99.90;;;;;;5087341;28;21598;-71
2021/06/30 04:00:11;;;;;;;;;;;24.90;99.90;;;;;;5087613;28;19919;-71
2021/06/30 04:02:36;;;;;;;;;;;24.90;99.90;;;;;;5084035;28;19912;-71
2021/06/30 04:05:02;;;;;;;;;;;24.90;99.90;;;;;;5089623;28;19922;-72
2021/06/30 04:07:27;;;;;;;;;;;24.90;99.90;;;;;;5089050;28;19916;-72
2021/06/30 04:09:53;;;;;;;;;;;25.00;99.90;;;;;;5087066;28;19916;-71
2021/06/30 04:12:21;;;;;;;;;;;25.00;99.90;;;;;;5092949;28;19920;-73
2021/06/30 04:14:46;;;;;;;;;;;25.00;99.90;;;;;;5088883;28;19912;-71
2021/06/30 04:17:12;;;;;;;;;;;25.00;99.90;;;;;;5089745;28;20374;-71
2021/06/30 04:19:37;;;;;;;;;;;24.90;99.90;;;;;;5087816;28;20328;-72
2021/06/30 04:22:03;;;;;;;;;;;24.90;99.90;;;;;;5085995;28;19908;-71
2021/06/30 04:24:28;;;;;;;;;;;24.80;99.90;;;;;;5084763;28;19912;-71
2021/06/30 04:26:54;;;;;;;;;;;24.90;99.90;;;;;;5088542;28;19916;-72
2021/06/30 04:29:19;;;;;;;;;;;24.90;99.90;;;;;;5086983;28;19913;-72
2021/06/30 04:31:45;;;;;;;;;;;24.90;99.90;;;;;;5092205;28;19908;-72
2021/06/30 04:34:11;;;;;;;;;;;25.00;99.90;;;;;;5092289;28;19912;-73
2021/06/30 04:36:36;;;;;;;;;;;25.00;99.90;;;;;;5082082;28;19944;-72
2021/06/30 04:39:02;;;;;;;;;;;25.00;99.90;;;;;;5089299;28;19916;-72
2021/06/30 04:41:27;;;;;;;;;;;25.00;99.90;;;;;;5089667;28;19918;-73
2021/06/30 04:43:53;;;;;;;;;;;25.00;99.90;;;;;;5092890;28;19911;-73
2021/06/30 04:46:18;;;;;;;;;;;25.20;99.90;;;;;;5091393;28;19912;-72
2021/06/30 04:48:44;;;;;;;;;;;25.20;99.90;;;;;;5084655;28;19908;-73
2021/06/30 04:51:10;;;;;;;;;;;25.40;99.90;;;;;;5084605;28;20276;-72
2021/06/30 04:53:35;;;;;;;;;;;25.40;99.90;;;;;;5089654;28;20011;-72
2021/06/30 04:56:01;;;;;;;;;;;25.40;99.90;;;;;;5085181;28;19912;-71
2021/06/30 04:58:26;;;;;;;;;;;25.30;99.90;;;;;;5092177;28;19941;-74
2021/06/30 05:00:56;;;;;;;;;;;25.40;99.90;;;;;;5082340;28;19916;-73
2021/06/30 05:03:28;;;;;;;;;;;25.40;99.90;;;;;;5090464;28;20331;-72
2021/06/30 05:05:54;;;;;;;;;;;25.30;99.90;;;;;;5094551;28;19908;-72
2021/06/30 05:08:21;;;;;;;;;;;25.40;99.90;;;;;;5085382;28;19966;-72
2021/06/30 05:10:47;;;;;;;;;;;25.50;99.90;;;;;;5091684;28;19982;-73
2021/06/30 05:13:12;;;;;;;;;;;25.60;99.90;;;;;;5090629;28;19928;-73
2021/06/30 05:15:38;;;;;;;;;;;25.70;99.90;;;;;;5080045;28;19912;-72
2021/06/30 05:18:03;;;;;;;;;;;25.80;99.90;;;;;;5090148;28;19923;-72
2021/06/30 05:20:29;;;;;;;;;;;25.90;99.90;;;;;;5086166;28;20444;-72
2021/06/30 05:22:54;;;;;;;;;;;25.90;99.90;;;;;;5078909;28;19916;-72
2021/06/30 05:25:20;;;;;;;;;;;26.00;99.90;;;;;;5077988;28;19912;-72
2021/06/30 05:27:46;;;;;;;;;;;25.90;99.90;;;;;;5087587;28;19916;-72
2021/06/30 05:30:11;;;;;;;;;;;25.80;99.90;;;;;;5085561;28;19931;-72
2021/06/30 05:32:37;;;;;;;;;;;25.70;99.90;;;;;;5086022;28;19996;-72
2021/06/30 05:35:03;;;;;;;;;;;25.90;99.90;;;;;;5093157;28;19908;-72
2021/06/30 05:37:28;;;;;;;;;;;26.00;99.90;;;;;;5093236;28;19942;-72
2021/06/30 05:39:54;;;;;;;;;;;26.10;99.90;;;;;;5093839;28;19908;-72
2021/06/30 05:42:19;;;;;;;;;;;26.30;99.90;;;;;;5091040;28;19915;-72
2021/06/30 05:44:45;;;;;;;;;;;26.30;99.90;;;;;;5092084;28;20378;-73
2021/06/30 05:47:11;;;;;;;;;;;26.50;99.90;;;;;;5094648;28;19908;-72
2021/06/30 05:49:36;;;;;;;;;;;26.60;99.90;;;;;;5093707;28;20481;-73
2021/06/30 05:52:02;;;;;;;;;;;26.60;99.90;;;;;;5093826;28;20305;-71
2021/06/30 05:54:28;;;;;;;;;;;26.60;99.90;;;;;;5092996;28;19912;-71
2021/06/30 05:56:53;;;;;;;;;;;26.60;99.90;;;;;;5079011;28;19923;-71
2021/06/30 05:59:19;;;;;;;;;;;26.70;99.90;;;;;;5087664;28;19916;-71
2021/06/30 06:01:45;;;;;;;;;;;26.80;99.90;;;;;;5080540;28;20491;-71
2021/06/30 06:04:10;;;;;;;;;;;26.80;99.90;;;;;;5086985;28;20333;-71
2021/06/30 06:06:36;;;;;;;;;;;26.80;99.90;;;;;;5092444;28;19953;-71
2021/06/30 06:09:01;;;;;;;;;;;26.90;99.90;;;;;;5093066;28;20430;-72
2021/06/30 06:11:27;;;;;;;;;;;27.00;99.90;;;;;;5087391;28;20420;-72
2021/06/30 06:13:54;;;;;;;;;;;27.00;99.90;;;;;;5093022;28;19912;-72
2021/06/30 06:16:21;;;;;;;;;;;27.00;99.90;;;;;;5093430;28;19918;-74
2021/06/30 06:18:47;;;;;;;;;;;27.10;99.90;;;;;;5093940;28;19916;-72
2021/06/30 06:21:13;;;;;;;;;;;27.10;99.90;;;;;;5093065;28;19916;-67
2021/06/30 06:23:38;;;;;;;;;;;27.20;99.90;;;;;;5086230;28;20337;-69
2021/06/30 06:26:04;;;;;;;;;;;27.40;99.90;;;;;;5092371;28;19912;-66
2021/06/30 06:28:33;;;;;;;;;;;27.20;99.90;;;;;;5093829;28;19908;-71
2021/06/30 06:31:00;;;;;;;;;;;27.10;99.90;;;;;;5092836;28;19951;-70
2021/06/30 06:33:25;;;;;;;;;;;27.00;99.90;;;;;;5094005;28;19918;-68
2021/06/30 06:35:51;;;;;;;;;;;27.00;99.90;;;;;;5091007;28;20002;-70
2021/06/30 06:38:17;;;;;;;;;;;27.10;99.90;;;;;;5090929;28;19927;-69
2021/06/30 06:40:43;;;;;;;;;;;27.10;99.90;;;;;;5082915;28;19916;-69
2021/06/30 06:43:08;;;;;;;;;;;27.20;99.90;;;;;;5093130;28;19916;-69
2021/06/30 06:45:35;;;;;;;;;;;27.10;99.90;;;;;;5084033;28;19976;-71
2021/06/30 06:48:00;;;;;;;;;;;27.20;99.90;;;;;;5090993;28;19912;-70
2021/06/30 06:50:26;;;;;;;;;;;27.20;99.90;;;;;;5081846;28;19923;-68
2021/06/30 06:52:52;;;;;;;;;;;27.20;99.90;;;;;;5082982;28;19912;-67
2021/06/30 06:55:17;;;;;;;;;;;27.30;99.90;;;;;;5084846;28;19916;-67
2021/06/30 06:57:44;;;;;;;;;;;27.50;99.90;;;;;;5093030;28;19919;-67
2021/06/30 07:00:10;;;;;;;;;;;27.50;99.90;;;;;;5090704;28;20042;-68
2021/06/30 07:02:35;;;;;;;;;;;27.50;99.90;;;;;;5087458;28;20006;-69
2021/06/30 07:05:01;;;;;;;;;;;27.50;99.90;;;;;;5089853;28;19912;-68
2021/06/30 07:07:26;;;;;;;;;;;27.60;99.90;;;;;;5090344;28;19953;-66
2021/06/30 07:09:52;;;;;;;;;;;27.60;99.90;;;;;;5086091;28;19938;-67
2021/06/30 07:12:18;;;;;;;;;;;27.70;99.90;;;;;;5090598;28;20396;-68
2021/06/30 07:14:43;;;;;;;;;;;27.50;99.90;;;;;;5089994;28;19919;-69
2021/06/30 07:17:09;;;;;;;;;;;27.40;99.90;;;;;;5093017;28;19922;-68
2021/06/30 07:19:35;;;;;;;;;;;27.40;99.90;;;;;;5088616;28;19923;-69
2021/06/30 07:22:00;;;;;;;;;;;27.30;99.90;;;;;;5087237;28;19912;-69
2021/06/30 07:24:26;;;;;;;;;;;27.30;99.90;;;;;;5086222;28;19913;-71
2021/06/30 07:26:53;;;;;;;;;;;27.50;99.90;;;;;;5090045;28;20155;-70
2021/06/30 07:29:18;;;;;;;;;;;27.50;99.90;;;;;;5090596;28;19923;-72
2021/06/30 07:31:44;;;;;;;;;;;27.50;99.90;;;;;;5084738;28;19912;-70
2021/06/30 07:34:10;;;;;;;;;;;27.40;99.90;;;;;;5089852;28;19919;-70
2021/06/30 07:36:35;;;;;;;;;;;27.30;99.90;;;;;;5087405;28;20409;-67
2021/06/30 07:39:01;;;;;;;;;;;27.40;99.90;;;;;;5087863;28;20006;-69
2021/06/30 07:41:27;;;;;;;;;;;27.50;99.90;;;;;;5089595;28;19913;-68
2021/06/30 07:43:52;;;;;;;;;;;27.50;99.90;;;;;;5083960;28;19990;-70
2021/06/30 07:46:18;;;;;;;;;;;27.50;99.90;;;;;;5084579;28;20400;-71
2021/06/30 07:48:43;;;;;;;;;;;27.50;99.90;;;;;;5085733;28;19919;-68
2021/06/30 07:51:09;;;;;;;;;;;27.60;99.90;;;;;;5086550;28;20294;-70
2021/06/30 07:53:35;;;;;;;;;;;27.60;99.90;;;;;;5085812;28;19919;-69
2021/06/30 07:56:00;;;;;;;;;;;27.60;99.90;;;;;;5087007;28;19920;-70
2021/06/30 07:58:26;;;;;;;;;;;27.50;99.90;;;;;;5086692;28;19916;-68
2021/06/30 08:00:51;;;;;;;;;;;27.50;99.90;;;;;;5089020;28;20309;-68
2021/06/30 08:03:17;;;;;;;;;;;27.40;99.90;;;;;;5088931;28;19974;-68
2021/06/30 08:05:43;;;;;;;;;;;27.50;99.90;;;;;;5089618;28;19916;-68
2021/06/30 08:08:09;;;;;;;;;;;27.50;99.90;;;;;;5089081;28;19923;-69
2021/06/30 08:10:34;;;;;;;;;;;27.40;99.90;;;;;;5084181;28;19912;-68
2021/06/30 08:13:00;;;;;;;;;;;27.40;99.90;;;;;;5090873;28;20170;-69
2021/06/30 08:15:26;;;;;;;;;;;27.40;99.90;;;;;;5091540;28;19912;-69
2021/06/30 08:17:51;;;;;;;;;;;27.50;99.90;;;;;;5087494;28;19979;-69
2021/06/30 08:20:17;;;;;;;;;;;27.40;99.90;;;;;;5089418;28;20374;-69
2021/06/30 08:22:43;;;;;;;;;;;27.40;99.90;;;;;;5087419;28;19922;-69
2021/06/30 08:25:09;;;;;;;;;;;27.50;99.90;;;;;;5088155;28;19916;-68
2021/06/30 08:27:36;;;;;;;;;;;27.40;99.90;;;;;;5082850;28;20281;-68
2021/06/30 08:30:03;;;;;;;;;;;27.50;99.90;;;;;;5089870;28;19912;-68
2021/06/30 08:32:28;;;;;;;;;;;27.50;99.90;;;;;;5090387;28;20369;-68
2021/06/30 08:34:54;;;;;;;;;;;27.40;99.90;;;;;;5085049;28;19912;-68
2021/06/30 08:37:21;;;;;;;;;;;27.40;99.90;;;;;;5086181;28;19912;-69
2021/06/30 08:39:50;;;;;;;;;;;27.30;99.90;;;;;;5087552;28;19919;-68
2021/06/30 08:42:15;;;;;;;;;;;27.50;99.90;;;;;;5087775;28;20355;-70
2021/06/30 08:44:41;;;;;;;;;;;27.50;99.90;;;;;;5089769;28;19912;-68
2021/06/30 08:47:07;;;;;;;;;;;27.40;99.90;;;;;;5089770;28;19965;-64
2021/06/30 08:49:34;;;;;;;;;;;27.50;99.90;;;;;;5087469;28;19965;-65
2021/06/30 08:52:00;;;;;;;;;;;27.30;99.90;;;;;;5087575;28;20006;-63
2021/06/30 08:54:26;;;;;;;;;;;27.20;99.90;;;;;;5089269;28;19909;-63
2021/06/30 08:56:52;;;;;;;;;;;27.10;99.90;;;;;;5090129;28;19919;-63
2021/06/30 08:59:17;;;;;;;;;;;27.20;99.90;;;;;;5087277;28;19923;-63
2021/06/30 09:01:45;;;;;;;;;;;27.20;99.90;;;;;;5085122;28;19912;-64
2021/06/30 09:04:12;;;;;;;;;;;27.20;99.90;;;;;;5089579;28;19950;-64
2021/06/30 09:06:38;;;;;;;;;;;27.20;99.90;;;;;;5080098;28;19922;-64
2021/06/30 09:09:12;;;;;;;;;;;27.10;99.90;;;;;;5085489;28;19912;-64
2021/06/30 09:11:38;;;;;;;;;;;27.00;99.90;;;;;;5085989;28;19916;-64
2021/06/30 09:14:09;;;;;;;;;;;27.10;99.90;;;;;;5087804;28;19987;-63
2021/06/30 09:16:51;;;;;;;;;;;27.10;99.90;;;;;;5087751;28;19912;-64
2021/06/30 09:19:18;;;;;;;;;;;27.20;99.90;;;;;;5086216;28;20299;-64
2021/06/30 09:21:44;;;;;;;;;;;27.10;99.90;;;;;;5084121;28;19967;-64
2021/06/30 09:24:20;;;;;;;;;;;27.30;99.90;;;;;;5090507;28;20289;-63
2021/06/30 09:26:49;;;;;;;;;;;27.30;99.90;;;;;;5085936;28;19912;-64
2021/06/30 09:29:15;;;;;;;;;;;27.30;99.90;;;;;;5082015;28;20358;-65
2021/06/30 09:31:42;;;;;;;;;;;27.30;99.90;;;;;;5088050;28;19912;-65
2021/06/30 09:34:08;;;;;;;;;;;27.10;99.90;;;;;;5088454;28;19912;-63
2021/06/30 09:37:07;;;;;;;;;;;27.10;99.90;;;;;;5086468;28;20354;-61
2021/06/30 09:39:37;;;;;;;;;;;27.20;99.90;;;;;;5081104;28;20335;-63
2021/06/30 09:42:04;;;;;;;;;;;27.20;99.90;;;;;;5082196;28;19950;-61
2021/06/30 09:44:31;;;;;;;;;;;27.20;99.90;;;;;;5090242;28;19994;-63
2021/06/30 09:46:57;;;;;;;;;;;27.20;99.90;;;;;;5088967;28;19912;-60
2021/06/30 09:49:23;;;;;;;;;;;27.30;99.90;;;;;;5087645;28;19939;-63
2021/06/30 09:52:05;;;;;;;;;;;27.10;99.90;;;;;;5085072;28;19923;-61
2021/06/30 09:54:31;;;;;;;;;;;27.10;99.90;;;;;;5086178;28;19995;-62
2021/06/30 09:57:03;;;;;;;;;;;27.00;99.90;;;;;;5087840;28;19915;-63
2021/06/30 09:59:35;;;;;;;;;;;26.90;99.90;;;;;;5087060;28;19924;-63
2021/06/30 10:02:02;;;;;;;;;;;26.90;99.90;;;;;;5087868;28;19923;-63
2021/06/30 10:04:30;;;;;;;;;;;26.90;99.90;;;;;;5088518;28;19934;-61
2021/06/30 10:06:56;;;;;;;;;;;27.00;99.90;;;;;;5089771;28;19924;-63
2021/06/30 10:09:22;;;;;;;;;;;27.10;99.90;;;;;;5085083;28;19920;-63
2021/06/30 10:12:01;;;;;;;;;;;27.00;99.90;;;;;;5090097;28;19909;-63
2021/06/30 10:14:27;;;;;;;;;;;27.20;99.90;;;;;;5089481;28;19915;-63
2021/06/30 10:16:53;;;;;;;;;;;27.10;99.90;;;;;;5091323;28;19912;-63
2021/06/30 10:19:19;;;;;;;;;;;27.00;99.90;;;;;;5082636;28;20048;-67
2021/06/30 10:21:45;;;;;;;;;;;27.00;99.90;;;;;;5082714;28;19927;-68
2021/06/30 10:24:12;;;;;;;;;;;27.10;99.90;;;;;;5093655;28;20276;-67
2021/06/30 10:26:37;;;;;;;;;;;27.20;99.90;;;;;;5088327;28;20255;-64
2021/06/30 10:29:03;;;;;;;;;;;27.00;99.90;;;;;;5092944;28;20014;-63
2021/06/30 10:31:35;;;;;;;;;;;27.00;99.90;;;;;;5092496;28;19908;-64
2021/06/30 10:34:11;;;;;;;;;;;26.90;99.90;;;;;;5090430;28;19912;-68
2021/06/30 10:36:47;;;;;;;;;;;27.10;99.90;;;;;;5087981;28;19935;-64
2021/06/30 10:39:14;;;;;;;;;;;27.10;99.90;;;;;;5093806;28;20281;-64
2021/06/30 10:41:51;;;;;;;;;;;27.10;99.90;;;;;;5081946;28;19915;-63
2021/06/30 10:44:18;;;;;;;;;;;27.10;99.90;;;;;;5090102;28;19913;-67
2021/06/30 10:46:44;;;;;;;;;;;27.10;99.90;;;;;;5084322;28;19912;-64
2021/06/30 10:49:26;;;;;;;;;;;27.10;99.90;;;;;;5082329;28;19942;-64
2021/06/30 10:51:53;;;;;;;;;;;27.00;99.90;;;;;;5085143;28;20314;-65
2021/06/30 10:54:37;;;;;;;;;;;27.20;99.90;;;;;;5091343;28;19919;-71
2021/06/30 10:57:21;;;;;;;;;;;27.20;99.90;;;;;;5083325;28;19970;-71
2021/06/30 11:00:03;;;;;;;;;;;27.20;99.90;;;;;;5088300;28;19916;-71
2021/06/30 11:02:31;;;;;;;;;;;27.20;99.90;;;;;;5087027;28;19919;-71
2021/06/30 11:04:57;;;;;;;;;;;27.40;99.90;;;;;;5084551;28;19912;-72
2021/06/30 11:07:33;;;;;;;;;;;27.50;99.90;;;;;;5087707;28;20392;-70
2021/06/30 11:10:17;;;;;;;;;;;27.60;99.90;;;;;;5092352;28;20271;-72
2021/06/30 11:12:53;;;;;;;;;;;27.60;99.90;;;;;;5087610;28;19923;-71
2021/06/30 11:15:51;;;;;;;;;;;27.50;99.90;;;;;;5089465;28;19919;-71
2021/06/30 11:18:18;;;;;;;;;;;27.30;99.90;;;;;;5060598;28;19965;-71
2021/06/30 11:20:46;;;;;;;;;;;27.30;99.90;;;;;;5087321;28;20301;-71
2021/06/30 11:23:22;;;;;;;;;;;27.30;99.90;;;;;;5083755;28;20377;-70
2021/06/30 11:25:48;;;;;;;;;;;27.30;99.90;;;;;;5090743;28;19908;-71
2021/06/30 11:28:30;;;;;;;;;;;27.60;99.90;;;;;;5091026;28;19916;-77
2021/06/30 11:30:57;;;;;;;;;;;27.70;99.90;;;;;;5086671;28;21646;-75
2021/06/30 11:33:23;;;;;;;;;;;27.70;99.90;;;;;;5092656;28;19912;-76
2021/06/30 11:35:48;;;;;;;;;;;27.70;99.90;;;;;;5087745;28;20313;-77
2021/06/30 11:38:16;;;;;;;;;;;27.60;99.90;;;;;;5090269;28;19915;-76
2021/06/30 11:41:06;;;;;;;;;;;27.50;99.90;;;;;;5086444;28;20255;-74
2021/06/30 11:43:32;;;;;;;;;;;27.50;99.90;;;;;;5087130;28;19920;-73
2021/06/30 11:45:59;;;;;;;;;;;27.50;99.90;;;;;;5083728;28;19955;-76
2021/06/30 11:48:27;;;;;;;;;;;27.60;99.90;;;;;;5091049;28;19919;-74
2021/06/30 11:50:53;;;;;;;;;;;27.60;99.90;;;;;;5088577;28;19912;-75
2021/06/30 11:53:34;;;;;;;;;;;27.60;99.90;;;;;;5085146;28;19919;-74
2021/06/30 11:55:59;;;;;;;;;;;27.60;99.90;;;;;;5089133;28;19915;-71
2021/06/30 11:58:41;;;;;;;;;;;27.60;99.90;;;;;;5085424;28;19920;-74
2021/06/30 12:01:19;;;;;;;;;;;27.80;99.90;;;;;;5080280;28;19916;-74
2021/06/30 12:03:45;;;;;;;;;;;27.90;99.90;;;;;;5076620;28;19920;-73
2021/06/30 12:06:20;;;;;;;;;;;27.80;99.90;;;;;;5087207;28;20388;-73
2021/06/30 12:09:03;;;;;;;;;;;28.00;99.90;;;;;;5085930;28;20023;-73
2021/06/30 12:11:29;;;;;;;;;;;27.80;99.90;;;;;;5086462;28;19920;-74
2021/06/30 12:14:05;;;;;;;;;;;27.90;99.90;;;;;;5084138;28;19912;-75
2021/06/30 12:16:50;;;;;;;;;;;28.00;99.90;;;;;;5091627;28;19980;-73
2021/06/30 12:19:18;;;;;;;;;;;27.90;99.90;;;;;;5083936;28;20334;-74
2021/06/30 12:21:45;;;;;;;;;;;28.00;99.90;;;;;;5083571;28;20472;-77
2021/06/30 12:24:21;;;;;;;;;;;28.10;99.90;;;;;;5090746;28;19930;-74
2021/06/30 12:26:56;;;;;;;;;;;28.10;99.90;;;;;;5089779;28;19912;-74
2021/06/30 12:29:22;;;;;;;;;;;28.30;99.90;;;;;;5083936;28;19940;-77
2021/06/30 12:31:47;;;;;;;;;;;28.20;99.90;;;;;;5086752;28;19970;-77
2021/06/30 12:34:13;;;;;;;;;;;28.20;99.90;;;;;;5080447;28;19915;-76
2021/06/30 12:36:40;;;;;;;;;;;28.10;99.90;;;;;;5086526;28;20007;-73
2021/06/30 12:39:24;;;;;;;;;;;28.10;99.90;;;;;;5091498;28;19912;-75
2021/06/30 12:41:56;;;;;;;;;;;28.10;99.90;;;;;;5089518;28;20286;-74
2021/06/30 12:44:21;;;;;;;;;;;28.10;99.90;;;;;;5087231;28;20003;-73
2021/06/30 12:47:03;;;;;;;;;;;27.60;99.90;;;;;;5087982;28;20437;-74
2021/06/30 12:49:29;;;;;;;;;;;27.50;99.90;;;;;;5088695;28;19947;-75
2021/06/30 12:51:55;;;;;;;;;;;27.70;99.90;;;;;;5082047;28;20362;-74
2021/06/30 12:54:20;;;;;;;;;;;28.20;99.90;;;;;;5088868;28;19937;-73
2021/06/30 12:56:47;;;;;;;;;;;28.80;99.90;;;;;;5089967;28;19919;-74
2021/06/30 12:59:14;;;;;;;;;;;29.60;99.90;;;;;;5086890;28;19916;-75
2021/06/30 13:01:40;;;;;;;;;;;30.40;99.90;;;;;;5087612;28;19912;-74
2021/06/30 13:04:07;;;;;;;;;;;30.90;99.90;;;;;;5088541;28;20073;-72
2021/06/30 13:06:37;;;;;;;;;;;31.10;99.90;;;;;;5083945;28;20004;-76
2021/06/30 13:09:02;;;;;;;;;;;31.00;99.90;;;;;;5091713;28;19985;-76
2021/06/30 13:11:28;;;;;;;;;;;30.80;99.90;;;;;;5085363;28;19963;-74
2021/06/30 13:14:05;;;;;;;;;;;30.40;99.90;;;;;;5091270;28;19919;-73
2021/06/30 13:16:33;;;;;;;;;;;30.20;99.90;;;;;;5088735;28;19916;-75
2021/06/30 13:19:00;;;;;;;;;;;30.10;99.90;;;;;;5090862;28;20352;-75
2021/06/30 13:21:27;;;;;;;;;;;30.20;99.90;;;;;;5087430;28;19919;-76
2021/06/30 13:23:56;;;;;;;;;;;30.40;99.90;;;;;;5090617;28;19918;-75
2021/06/30 13:35:17;;;;;;;;;;;29.70;99.90;;;;;;5085564;28;19966;-75
2021/06/30 13:37:43;;;;;;;;;;;29.50;99.90;;;;;;5083056;28;20274;-74
2021/06/30 13:40:09;;;;;;;;;;;29.40;99.90;;;;;;5086112;28;19982;-74
2021/06/30 13:42:34;;;;;;;;;;;29.50;99.90;;;;;;5082681;28;19927;-73
2021/06/30 13:45:00;;;;;;;;;;;29.70;99.90;;;;;;5088931;28;19924;-75
2021/06/30 13:47:25;;;;;;;;;;;29.90;99.90;;;;;;5088233;28;20042;-74
2021/06/30 13:49:51;;;;;;;;;;;30.20;99.90;;;;;;5086863;28;19929;-76
2021/06/30 13:52:17;;;;;;;;;;;30.10;99.90;;;;;;5084325;28;19999;-77
2021/06/30 13:54:42;;;;;;;;;;;29.90;99.90;;;;;;5091417;28;19920;-76
2021/06/30 13:57:08;;;;;;;;;;;30.00;99.90;;;;;;5094375;28;20343;-74
2021/06/30 13:59:33;;;;;;;;;;;30.00;99.90;;;;;;5089738;28;19920;-74
2021/06/30 14:01:59;;;;;;;;;;;29.80;99.90;;;;;;5085471;28;19928;-75
2021/06/30 14:04:24;;;;;;;;;;;29.60;99.90;;;;;;5091204;28;19913;-74
2021/06/30 14:06:50;;;;;;;;;;;29.50;99.90;;;;;;5093050;28;20060;-75
2021/06/30 14:09:16;;;;;;;;;;;29.70;99.90;;;;;;5090083;28;19921;-73
2021/06/30 14:11:41;;;;;;;;;;;29.90;99.90;;;;;;5089636;28;19924;-75
2021/06/30 14:14:07;;;;;;;;;;;29.80;99.90;;;;;;5093923;28;19908;-73
2021/06/30 14:16:32;;;;;;;;;;;29.90;99.90;;;;;;5081809;28;19915;-75
2021/06/30 14:18:58;;;;;;;;;;;29.90;99.90;;;;;;5093457;28;19912;-75
2021/06/30 14:21:23;;;;;;;;;;;29.70;99.90;;;;;;5089109;28;19934;-73
2021/06/30 14:23:49;;;;;;;;;;;29.50;99.90;;;;;;5093716;28;19908;-73
2021/06/30 14:26:15;;;;;;;;;;;29.50;99.90;;;;;;5093052;28;19970;-74